Glasgow, KY

12:13 PM CDT on September 02, 2015 (GMT -0500)
Scout Reservation | | Change Station
CLOSE
Current Station
Personal Weather Station
Location: Temple Hill, KY
Elevation: 780 ft
Nearby Weather Stations

Elev 780 ft 36.90 °N, 85.88 °W | Updated 57 seconds ago

Mostly Cloudy
Mostly Cloudy
90.3 °F
Feels Like 96 °F
N
0.2
Wind Variable Wind from East
Gusts 2.3 mph

Today
High -- | Low -- °F
--% Chance of Precip.
Yesterday
High -- | Low -- °F
Precip. -- in
6:15 AM 7:11 PM
Waning Gibbous, 79% visible
Pressure 30.12 in
Visibility 10.0 miles
Clouds Scattered Clouds 4500 ft
Mostly Cloudy 7500 ft
Heat Index 96 °F
Dew Point 70 °F
Humidity 52%
Rainfall 0.00 in
Snow Depth Not available.
UV 5 out of 12
Pollen 10.20 out of 12
Air Quality Not available.
Flu Activity Not available.
METAR KGLW 021655Z AUTO 00000KT 10SM SCT045 BKN075 32/17 A3012 RMK AO2 T03150171
Pressure 30.12 in
Visibility 10.0 miles
Clouds Scattered Clouds 4500 ft
Mostly Cloudy 7500 ft
Heat Index 96 °F
Dew Point 70 °F
Humidity 52%
Rainfall 0.00 in
Snow Depth Not available.
UV 5 out of 12
Pollen 10.20 out of 12
Air Quality Not available.
Flu Activity Not available.
METAR KGLW 021655Z AUTO 00000KT 10SM SCT045 BKN075 32/17 A3012 RMK AO2 T03150171

10-Day Weather Forecast

×

Almanac

Astronomy

Sep. 02, 2015 Rise Set
Actual Time
Civil Twilight
Nautical Twilight
Astronomical Twilight
Moon
Length of Visible Light
Length of Day
Tomorrow will be .
, % of the Moon is Illuminated

Today's Extremes

State Highs State Lows

Community

WunderPhotos

Upload Photos

1,851,785 photos uploaded!

WunderBlogs® & News

Nearby

Air Quality

  Air Quality AQ Index Pollutant
Not available.

Snow Depth

Station Depth Elevation

Earthquake Activity

City Distance Mag. Time & Date
Minimum magnitude displayed is 2.5.

Coastal Water Temperatures

Place Temperature

Stations

Nearby Weather Stations

Station Location Temp. Windchill Dew Point Humidity Wind Precip. Elev Updated Type